Time;durP1;ratioP1;P1;durP2;ratioP2;P2;SDS_P1;SDS_P2;PMS_P1;PMS_P2;Temp;Humidity;BMP_temperature;BMP_pressure;BME280_temperature;BME280_humidity;BME280_pressure;Samples;Min_cycle;Max_cycle;Signal;HPM_P1;HPM_P2
2023/06/15 00:00:17;;;;;;;10.93;4.90;;;;;;;15.46;52.84;99694.44;5029696;28;20425;-38
2023/06/15 00:02:44;;;;;;;16.40;4.38;;;;;;;15.40;52.68;99686.91;5029807;28;20052;-36
2023/06/15 00:05:11;;;;;;;15.90;5.25;;;;;;;15.42;52.73;99692.91;5028356;28;20064;-38
2023/06/15 00:07:37;;;;;;;16.40;5.18;;;;;;;15.38;52.89;99693.16;5028204;28;20037;-37
2023/06/15 00:10:03;;;;;;;10.77;5.15;;;;;;;15.37;53.13;99688.84;5044734;28;20180;-38
2023/06/15 00:12:32;;;;;;;14.63;5.63;;;;;;;15.33;53.16;99684.72;5027648;28;20053;-37
2023/06/15 00:14:58;;;;;;;17.95;4.55;;;;;;;15.31;53.18;99683.94;5027588;28;20540;-37
2023/06/15 00:17:25;;;;;;;15.30;4.97;;;;;;;15.27;53.17;99688.50;5025779;28;20053;-38
2023/06/15 00:19:50;;;;;;;14.80;5.28;;;;;;;14.93;53.13;99634.44;5009661;28;20107;-38
2023/06/15 00:22:17;;;;;;;18.35;5.43;;;;;;;15.22;53.51;99680.88;5027420;28;20047;-38
2023/06/15 00:24:44;;;;;;;11.30;5.20;;;;;;;14.93;53.46;99636.19;5027631;28;20051;-38
2023/06/15 00:27:10;;;;;;;16.35;5.60;;;;;;;15.16;53.81;99685.59;5027478;28;20428;-37
2023/06/15 00:29:37;;;;;;;18.48;6.10;;;;;;;15.13;53.92;99678.72;5028162;28;20057;-38
2023/06/15 00:32:04;;;;;;;15.68;5.35;;;;;;;15.15;54.23;99684.75;5027869;28;20037;-37
2023/06/15 00:34:31;;;;;;;21.00;5.32;;;;;;;15.15;54.11;99682.13;5029350;28;20052;-37
2023/06/15 00:36:57;;;;;;;14.43;4.70;;;;;;;15.02;54.26;99661.91;5027990;28;20045;-37
2023/06/15 00:39:24;;;;;;;12.38;5.13;;;;;;;15.01;53.87;99668.06;5029143;28;20123;-37
2023/06/15 00:41:50;;;;;;;11.50;5.60;;;;;;;15.13;54.22;99686.59;4969022;28;1245076;-37
2023/06/15 00:44:16;;;;;;;17.50;4.90;;;;;;;15.10;54.10;99689.38;5028673;28;20040;-38
2023/06/15 00:46:42;;;;;;;15.00;4.65;;;;;;;15.11;53.84;99692.84;5028737;28;20838;-38
2023/06/15 00:49:08;;;;;;;23.10;5.18;;;;;;;15.10;53.96;99684.16;5012170;28;20041;-37
2023/06/15 00:51:38;;;;;;;12.57;4.70;;;;;;;15.10;54.28;99692.00;5028454;28;20037;-38
2023/06/15 00:54:05;;;;;;;21.75;5.18;;;;;;;15.11;54.18;99682.38;5028609;28;20102;-37
2023/06/15 00:56:31;;;;;;;18.42;5.25;;;;;;;15.13;54.15;99689.22;5028683;28;20041;-38
2023/06/15 00:58:57;;;;;;;19.48;5.20;;;;;;;15.11;53.82;99690.22;5024633;28;20052;-36
2023/06/15 01:01:26;;;;;;;18.90;5.75;;;;;;;15.13;54.08;99689.22;5005291;28;20045;-38
2023/06/15 01:03:54;;;;;;;15.93;5.20;;;;;;;15.12;54.29;99689.31;5014567;28;20037;-38
2023/06/15 01:06:24;;;;;;;15.70;5.63;;;;;;;15.10;53.97;99686.75;5009139;28;20044;-38
2023/06/15 01:08:53;;;;;;;19.85;5.38;;;;;;;15.00;53.98;99672.47;5028560;28;20042;-38
2023/06/15 01:11:19;;;;;;;22.35;6.55;;;;;;;15.10;53.95;99691.16;5011041;28;20045;-37
2023/06/15 01:13:47;;;;;;;21.67;6.40;;;;;;;14.94;54.24;99672.78;5027421;28;20460;-37
2023/06/15 01:16:21;;;;;;;17.30;6.03;;;;;;;15.09;54.43;99702.53;5025899;28;20041;-37
2023/06/15 01:18:50;;;;;;;22.83;6.47;;;;;;;15.06;54.25;99693.09;5029584;28;20060;-37
2023/06/15 01:21:17;;;;;;;21.80;6.20;;;;;;;15.05;54.30;99694.03;5012144;28;20042;-37
2023/06/15 01:24:08;;;;;;;18.75;5.90;;;;;;;15.04;54.49;99688.84;5028344;28;20037;-37
2023/06/15 01:26:38;;;;;;;18.15;6.15;;;;;;;15.04;54.45;99701.94;5029310;28;20517;-37
2023/06/15 01:29:06;;;;;;;19.42;6.05;;;;;;;15.02;54.76;99701.19;5029350;28;20131;-37
2023/06/15 01:31:32;;;;;;;16.33;5.90;;;;;;;15.02;54.62;99696.78;5029426;28;20084;-37
2023/06/15 01:34:00;;;;;;;20.50;6.10;;;;;;;15.04;54.99;99701.94;5010846;28;20046;-37
2023/06/15 01:36:26;;;;;;;17.33;5.65;;;;;;;15.05;54.90;99691.41;5008290;28;20045;-37
2023/06/15 01:38:53;;;;;;;20.48;5.45;;;;;;;15.06;54.88;99695.72;5024663;28;20064;-37
2023/06/15 01:41:22;;;;;;;16.23;5.20;;;;;;;15.06;54.98;99687.00;5003732;28;20437;-37
2023/06/15 01:43:48;;;;;;;14.32;5.07;;;;;;;15.08;55.04;99699.09;5001933;28;20052;-37
2023/06/15 01:46:16;;;;;;;14.65;4.82;;;;;;;15.11;54.82;99701.56;4996199;28;20199;-37
2023/06/15 01:48:42;;;;;;;12.82;5.20;;;;;;;15.11;54.72;99691.09;5027761;28;20048;-37
2023/06/15 01:51:08;;;;;;;20.58;4.97;;;;;;;15.15;54.76;99699.63;5019292;28;20033;-37
2023/06/15 01:53:35;;;;;;;13.93;4.85;;;;;;;15.02;54.73;99667.97;4991524;28;20053;-37
2023/06/15 01:56:02;;;;;;;18.95;5.55;;;;;;;15.18;54.91;99692.44;5009287;28;20045;-37
2023/06/15 01:58:28;;;;;;;19.20;5.30;;;;;;;15.17;54.63;99692.53;5010824;28;20045;-38
2023/06/15 02:00:55;;;;;;;12.75;5.20;;;;;;;15.21;54.71;99701.91;5002521;28;20049;-38
2023/06/15 02:03:21;;;;;;;14.63;4.60;;;;;;;14.98;54.89;99655.97;5032283;28;20045;-37
2023/06/15 02:05:46;;;;;;;13.98;4.43;;;;;;;15.24;54.85;99691.25;5021623;28;20045;-38
2023/06/15 02:08:15;;;;;;;9.23;4.43;;;;;;;15.28;54.72;99693.63;5008898;28;20045;-37
2023/06/15 02:10:41;;;;;;;12.25;4.28;;;;;;;15.31;54.35;99694.41;5008933;28;20033;-38
2023/06/15 02:13:11;;;;;;;19.90;5.68;;;;;;;15.35;54.59;99695.94;5026674;28;20106;-37
2023/06/15 02:15:38;;;;;;;18.40;5.35;;;;;;;15.37;54.62;99696.69;5008489;28;20037;-38
2023/06/15 02:18:14;;;;;;;13.35;4.93;;;;;;;15.42;54.43;99703.38;4999636;28;20048;-37
2023/06/15 02:20:41;;;;;;;17.25;5.97;;;;;;;15.43;54.50;99699.00;5025017;28;20791;-37
2023/06/15 02:23:07;;;;;;;14.55;5.05;;;;;;;15.32;54.49;99678.63;5026683;28;20441;-37
2023/06/15 02:25:33;;;;;;;17.70;4.90;;;;;;;15.35;54.22;99672.34;5025870;28;20033;-37
2023/06/15 02:27:59;;;;;;;15.98;5.15;;;;;;;15.53;54.13;99700.22;5026836;28;20041;-37
2023/06/15 02:30:26;;;;;;;18.67;5.32;;;;;;;15.56;53.87;99698.28;5027292;28;20430;-37
2023/06/15 02:32:53;;;;;;;12.90;5.13;;;;;;;15.60;53.97;99693.69;5026873;28;20041;-37
2023/06/15 02:35:20;;;;;;;18.60;7.25;;;;;;;15.66;53.99;99701.22;5015529;28;20069;-37
2023/06/15 02:37:46;;;;;;;14.10;5.50;;;;;;;15.67;54.07;99700.31;4991168;28;20061;-38
2023/06/15 02:40:13;;;;;;;16.25;5.10;;;;;;;15.58;54.10;99680.69;5007278;28;20050;-38
2023/06/15 02:42:39;;;;;;;13.63;5.38;;;;;;;15.79;54.03;99697.03;5008681;28;20119;-38
2023/06/15 02:45:07;;;;;;;16.10;5.85;;;;;;;15.75;53.69;99692.03;5007314;28;20107;-38
2023/06/15 02:47:34;;;;;;;13.88;5.07;;;;;;;15.88;53.84;99706.13;5007521;28;20375;-38
2023/06/15 02:50:00;;;;;;;18.00;5.10;;;;;;;15.88;53.35;99693.03;5026111;28;20036;-38
2023/06/15 02:52:31;;;;;;;14.95;5.70;;;;;;;15.98;53.46;99702.91;5011572;28;20127;-38
2023/06/15 02:54:59;;;;;;;15.57;4.78;;;;;;;16.03;53.27;99700.03;5027174;28;20052;-38
2023/06/15 02:57:26;;;;;;;15.25;4.85;;;;;;;16.10;53.08;99696.16;5010709;28;20103;-38
2023/06/15 03:00:27;;;;;;;19.58;4.78;;;;;;;16.13;53.20;99700.34;4989470;28;20048;-38
2023/06/15 03:03:05;;;;;;;13.38;5.20;;;;;;;16.20;53.17;99709.56;5008954;28;20053;-37
2023/06/15 03:05:39;;;;;;;12.32;4.85;;;;;;;16.25;53.01;99707.53;5010470;28;20045;-37
2023/06/15 03:08:07;;;;;;;12.65;4.72;;;;;;;16.31;52.68;99712.44;5026519;28;20051;-38
2023/06/15 03:10:44;;;;;;;23.75;5.47;;;;;;;16.37;52.76;99709.47;5008245;28;20048;-38
2023/06/15 03:13:11;;;;;;;9.80;4.97;;;;;;;16.40;52.35;99710.13;4991046;28;20468;-38
2023/06/15 03:15:38;;;;;;;15.68;5.50;;;;;;;16.50;52.38;99708.66;4991301;28;20042;-37
2023/06/15 03:18:04;;;;;;;16.63;5.07;;;;;;;16.45;52.03;99694.97;5006993;28;20474;-38
2023/06/15 03:20:32;;;;;;;18.55;4.70;;;;;;;16.65;51.20;99721.84;5007212;28;20040;-38
2023/06/15 03:23:00;;;;;;;;;;;;;;;16.59;51.42;99693.34;5023932;28;20300;-38
2023/06/15 03:25:29;;;;;;;12.38;4.53;;;;;;;16.73;51.18;99712.59;5007037;28;20368;-37
2023/06/15 03:27:59;;;;;;;15.05;4.82;;;;;;;16.80;51.29;99716.53;5007767;28;20118;-37
2023/06/15 03:30:27;;;;;;;14.35;4.68;;;;;;;16.86;51.05;99713.56;4991000;28;20072;-38
2023/06/15 03:32:53;;;;;;;17.92;4.90;;;;;;;16.94;50.59;99715.72;5023938;28;20125;-38
2023/06/15 03:35:22;;;;;;;14.23;5.18;;;;;;;17.00;50.65;99712.75;5027096;28;20061;-39
2023/06/15 03:37:49;;;;;;;13.82;3.95;;;;;;;17.09;50.10;99720.06;5010511;28;20124;-38
2023/06/15 03:40:15;;;;;;;10.80;3.95;;;;;;;17.18;49.99;99714.25;5011655;28;20058;-38
2023/06/15 03:42:41;;;;;;;11.52;3.47;;;;;;;17.26;49.69;99714.63;5011621;28;20054;-38
2023/06/15 03:45:09;;;;;;;5.78;3.55;;;;;;;17.33;49.43;99715.09;5027146;28;20037;-37
2023/06/15 03:47:35;;;;;;;7.13;3.10;;;;;;;17.40;49.38;99716.41;4994313;28;20042;-38
2023/06/15 03:50:01;;;;;;;8.73;3.53;;;;;;;17.47;48.83;99712.47;4996750;28;20037;-38
2023/06/15 03:52:33;;;;;;;6.70;3.25;;;;;;;17.58;48.42;99717.06;4998274;28;20037;-38
2023/06/15 03:55:00;;;;;;;5.65;3.22;;;;;;;17.66;48.62;99723.53;5030140;28;20065;-38
2023/06/15 03:57:27;;;;;;;7.38;3.65;;;;;;;17.75;48.20;99716.84;5029960;28;20135;-38
2023/06/15 03:59:54;;;;;;;11.55;3.17;;;;;;;17.82;48.05;99712.91;5030005;28;20812;-38
2023/06/15 04:02:20;;;;;;;14.05;4.50;;;;;;;17.92;47.65;99715.78;5029651;28;20045;-38
2023/06/15 04:04:46;;;;;;;10.80;3.60;;;;;;;17.76;47.67;99677.31;5013438;28;20111;-38
2023/06/15 04:07:12;;;;;;;12.50;4.93;;;;;;;17.98;47.68;99694.34;5031208;28;20471;-38
2023/06/15 04:09:39;;;;;;;7.97;3.50;;;;;;;18.11;47.50;99713.66;5016834;28;20069;-37
2023/06/15 04:12:05;;;;;;;6.78;3.78;;;;;;;18.19;47.20;99712.22;5026591;28;20037;-37
2023/06/15 04:14:33;;;;;;;7.43;3.15;;;;;;;18.27;47.37;99710.88;5009942;28;20640;-37
2023/06/15 04:17:00;;;;;;;6.60;3.33;;;;;;;18.32;47.15;99708.81;5006724;28;20046;-37
2023/06/15 04:19:27;;;;;;;11.60;4.28;;;;;;;18.33;47.01;99694.69;5013220;28;20464;-37
2023/06/15 04:21:55;;;;;;;11.25;4.35;;;;;;;18.52;46.91;99721.50;5029066;28;20049;-37
2023/06/15 04:24:22;;;;;;;8.82;4.10;;;;;;;18.60;46.92;99713.94;5029706;28;20033;-37
2023/06/15 04:26:47;;;;;;;9.68;3.72;;;;;;;18.67;46.75;99709.13;5030486;28;20041;-37
2023/06/15 04:29:18;;;;;;;6.25;3.30;;;;;;;18.60;46.73;99693.72;5028890;28;20107;-38
2023/06/15 04:31:46;;;;;;;12.15;4.25;;;;;;;18.81;46.77;99717.78;5028774;28;20052;-39
2023/06/15 04:34:15;;;;;;;7.78;3.35;;;;;;;18.91;46.20;99716.19;5011876;28;20045;-40
2023/06/15 04:36:44;;;;;;;5.90;2.85;;;;;;;18.84;45.77;99695.66;5028901;28;20048;-48
2023/06/15 04:39:13;;;;;;;6.80;3.15;;;;;;;19.09;45.42;99719.38;5029107;28;20144;-43
2023/06/15 04:41:39;;;;;;;10.75;2.90;;;;;;;19.17;44.93;99717.06;5028560;28;20045;-37
2023/06/15 04:44:06;;;;;;;6.45;3.63;;;;;;;19.23;45.02;99716.63;5028224;28;20049;-47
2023/06/15 04:46:36;;;;;;;12.63;6.03;;;;;;;19.31;45.07;99711.66;4987234;28;20477;-38
2023/06/15 04:49:03;;;;;;;14.77;4.30;;;;;;;19.41;45.12;99714.53;5028190;28;20045;-38
2023/06/15 04:51:30;;;;;;;7.03;3.63;;;;;;;19.52;45.11;99714.66;5025152;28;20048;-39
2023/06/15 04:53:56;;;;;;;9.52;3.10;;;;;;;19.61;44.68;99710.50;5029147;28;20045;-38
2023/06/15 04:56:22;;;;;;;6.85;3.13;;;;;;;19.69;44.21;99722.19;5028321;28;20048;-38
2023/06/15 04:58:49;;;;;;;6.47;3.25;;;;;;;19.53;44.01;99674.09;5010630;28;20049;-38
2023/06/15 05:01:15;;;;;;;4.47;2.88;;;;;;;19.87;43.65;99723.50;5028043;28;20299;-39
2023/06/15 05:03:42;;;;;;;9.02;3.78;;;;;;;19.97;43.29;99718.41;5029861;28;20044;-38
2023/06/15 05:06:08;;;;;;;5.68;3.20;;;;;;;20.06;42.97;99722.16;5028570;28;20478;-39
2023/06/15 05:08:35;;;;;;;4.95;2.97;;;;;;;20.08;42.84;99720.28;5024202;28;20049;-39
2023/06/15 05:11:02;;;;;;;5.55;3.45;;;;;;;20.08;42.80;99710.56;4992822;28;20045;-38
2023/06/15 05:13:30;;;;;;;11.37;3.30;;;;;;;20.29;42.48;99729.28;5025287;28;20509;-38
2023/06/15 05:15:56;;;;;;;8.05;3.60;;;;;;;20.39;42.50;99734.75;5020543;28;20651;-39
2023/06/15 05:18:25;;;;;;;13.00;4.03;;;;;;;20.48;42.41;99728.78;5028477;28;20175;-39
2023/06/15 05:20:51;;;;;;;6.75;3.42;;;;;;;20.56;42.08;99721.97;5028112;28;20033;-39
2023/06/15 05:23:20;;;;;;;10.07;4.97;;;;;;;20.69;41.80;99727.16;5011129;28;20046;-41
2023/06/15 05:25:48;;;;;;;9.45;3.65;;;;;;;20.80;41.92;99729.00;5027645;28;20048;-39
2023/06/15 05:28:15;;;;;;;10.05;5.25;;;;;;;20.78;41.69;99707.97;5026910;28;20041;-38
2023/06/15 05:30:41;;;;;;;10.70;3.88;;;;;;;20.83;41.65;99700.53;5016766;28;20037;-43
2023/06/15 05:33:08;;;;;;;7.78;3.38;;;;;;;21.08;41.26;99725.94;5027549;28;20041;-39
2023/06/15 05:35:36;;;;;;;4.97;3.10;;;;;;;21.22;41.34;99731.03;5011154;28;20037;-39
2023/06/15 05:38:02;;;;;;;7.95;3.85;;;;;;;21.25;41.18;99706.97;4995007;28;20037;-39
2023/06/15 05:40:29;;;;;;;7.20;3.50;;;;;;;21.49;41.23;99736.81;5027481;28;20054;-39
2023/06/15 05:42:56;;;;;;;8.07;3.72;;;;;;;21.60;40.66;99729.84;5009637;28;20569;-39
2023/06/15 05:45:24;;;;;;;10.13;2.95;;;;;;;21.70;39.91;99729.00;5010052;28;20124;-38
2023/06/15 05:47:50;;;;;;;5.47;2.80;;;;;;;21.72;39.46;99720.94;5027600;28;20041;-39
2023/06/15 05:50:17;;;;;;;9.82;3.42;;;;;;;21.96;38.86;99726.94;5006422;28;20041;-38
2023/06/15 05:52:43;;;;;;;3.67;2.60;;;;;;;22.05;38.68;99728.00;5024434;28;20052;-38
2023/06/15 05:55:09;;;;;;;9.65;3.15;;;;;;;22.16;38.13;99727.97;4991375;28;20245;-38
2023/06/15 05:57:35;;;;;;;7.30;2.92;;;;;;;22.25;38.00;99735.16;5007558;28;20115;-38
2023/06/15 06:00:04;;;;;;;6.20;3.00;;;;;;;22.36;37.64;99727.19;4991270;28;20034;-38
2023/06/15 06:02:42;;;;;;;5.72;2.78;;;;;;;22.48;37.32;99734.13;5009060;28;20331;-39
2023/06/15 06:05:18;;;;;;;8.02;3.60;;;;;;;22.59;37.15;99730.59;5024074;28;20045;-38
2023/06/15 06:07:45;;;;;;;9.80;2.85;;;;;;;22.69;37.00;99712.94;5018002;28;20044;-39
2023/06/15 06:10:12;;;;;;;8.23;3.50;;;;;;;22.81;36.88;99725.22;5041124;28;20037;-38
2023/06/15 06:12:40;;;;;;;6.97;3.08;;;;;;;22.90;36.43;99732.38;5010429;28;20463;-38
2023/06/15 06:15:06;;;;;;;8.38;3.10;;;;;;;22.93;35.81;99713.53;5027054;28;20099;-39
2023/06/15 06:17:32;;;;;;;7.57;3.05;;;;;;;23.17;35.48;99731.84;5043711;28;20041;-39
2023/06/15 06:19:58;;;;;;;6.90;2.92;;;;;;;23.29;35.28;99735.28;5026985;28;20041;-38
2023/06/15 06:22:25;;;;;;;8.68;3.50;;;;;;;23.48;34.82;99730.91;5026855;28;20045;-38
2023/06/15 06:24:50;;;;;;;11.38;6.57;;;;;;;23.64;34.66;99722.47;5010626;28;20049;-39
2023/06/15 06:27:16;;;;;;;5.68;2.78;;;;;;;23.78;34.29;99722.06;5027138;28;20052;-43
2023/06/15 06:29:42;;;;;;;9.65;3.15;;;;;;;24.02;33.92;99735.81;5028325;28;20048;-38
2023/06/15 06:32:08;;;;;;;6.57;4.22;;;;;;;24.21;33.60;99723.59;5027578;28;20072;-40
2023/06/15 06:34:37;;;;;;;4.43;2.90;;;;;;;24.36;33.39;99727.50;5028302;28;20041;-38
2023/06/15 06:37:03;;;;;;;;;;;;;;;24.56;32.66;99723.88;5027507;28;20505;-38
2023/06/15 06:39:29;;;;;;;5.25;2.80;;;;;;;24.83;32.12;99723.16;5027964;28;19921;-38
2023/06/15 06:41:55;;;;;;;5.05;3.13;;;;;;;25.40;31.60;99726.69;5026972;28;20049;-39
2023/06/15 06:44:30;;;;;;;9.10;3.15;;;;;;;26.19;30.61;99733.16;5026785;28;20560;-40
2023/06/15 06:46:56;;;;;;;7.60;3.33;;;;;;;27.14;29.39;99717.34;5028024;28;20041;-38
2023/06/15 06:49:22;;;;;;;5.43;3.13;;;;;;;28.09;28.05;99716.28;5028118;28;20045;-47
2023/06/15 06:51:48;;;;;;;7.13;2.80;;;;;;;29.06;26.80;99732.41;5027965;28;20033;-38
2023/06/15 06:54:13;;;;;;;6.05;3.05;;;;;;;30.06;25.80;99737.16;5028214;28;20045;-40
2023/06/15 06:56:39;;;;;;;9.38;4.90;;;;;;;30.96;24.92;99708.66;5026762;28;20071;-40
2023/06/15 06:59:05;;;;;;;5.50;3.10;;;;;;;31.98;23.76;99732.03;5027846;28;20116;-39
2023/06/15 07:01:31;;;;;;;6.15;3.67;;;;;;;32.87;22.88;99734.44;5010168;28;20037;-39
2023/06/15 07:03:57;;;;;;;5.00;3.30;;;;;;;33.67;22.10;99734.78;5028078;28;20048;-39
2023/06/15 07:06:23;;;;;;;4.20;3.20;;;;;;;34.44;21.03;99739.84;5024863;28;20038;-39
2023/06/15 07:08:49;;;;;;;6.60;3.10;;;;;;;35.31;20.42;99728.06;5015009;28;20397;-40
2023/06/15 07:11:15;;;;;;;4.45;3.30;;;;;;;36.25;19.75;99728.38;5031806;28;20057;-39
2023/06/15 07:13:40;;;;;;;12.90;3.30;;;;;;;36.90;19.08;99725.19;5030548;28;20067;-40
2023/06/15 07:16:07;;;;;;;5.50;2.83;;;;;;;37.49;18.40;99731.09;5030549;28;20512;-39
2023/06/15 07:18:33;;;;;;;10.60;8.10;;;;;;;38.10;17.54;99726.44;5031516;28;20073;-41
2023/06/15 07:20:58;;;;;;;5.28;3.60;;;;;;;38.73;16.97;99731.34;5031468;28;20425;-40
2023/06/15 07:23:25;;;;;;;11.30;4.10;;;;;;;38.96;16.48;99697.94;5031633;28;20092;-39
2023/06/15 07:25:52;;;;;;;8.48;6.03;;;;;;;39.50;16.14;99712.22;5031518;28;20045;-41
2023/06/15 07:28:18;;;;;;;6.93;4.90;;;;;;;39.99;15.91;99735.31;5030204;28;20052;-41
2023/06/15 07:30:44;;;;;;;6.32;5.00;;;;;;;40.28;15.73;99720.63;5031568;28;20064;-41
2023/06/15 07:33:11;;;;;;;4.63;4.22;;;;;;;40.72;15.07;99729.06;5030247;28;20045;-40
2023/06/15 07:35:37;;;;;;;7.03;3.65;;;;;;;41.20;14.42;99722.97;5031474;28;20523;-41
2023/06/15 07:38:03;;;;;;;6.97;4.03;;;;;;;41.52;14.56;99723.19;5013208;28;20052;-39
2023/06/15 07:40:29;;;;;;;7.13;3.70;;;;;;;41.60;14.28;99729.03;5031004;28;20060;-40
2023/06/15 07:42:55;;;;;;;4.38;3.83;;;;;;;41.76;13.62;99710.94;5031054;28;20041;-42
2023/06/15 07:45:21;;;;;;;8.07;5.50;;;;;;;42.16;13.70;99722.34;5013414;28;20128;-41
2023/06/15 07:47:47;;;;;;;8.65;4.00;;;;;;;42.30;13.17;99716.47;5031217;28;20045;-40
2023/06/15 07:50:13;;;;;;;6.80;3.50;;;;;;;42.26;13.36;99700.56;5029592;28;20049;-39
2023/06/15 07:52:39;;;;;;;5.60;3.92;;;;;;;42.52;13.11;99709.84;5030839;28;20046;-40
2023/06/15 07:55:05;;;;;;;8.05;3.88;;;;;;;42.71;13.00;99712.22;5029776;28;20044;-39
2023/06/15 07:57:31;;;;;;;5.87;3.70;;;;;;;42.95;12.81;99705.28;5030922;28;20136;-40
2023/06/15 08:00:01;;;;;;;9.48;4.40;;;;;;;43.22;12.58;99708.75;5030855;28;20132;-41
2023/06/15 08:02:32;;;;;;;6.78;3.60;;;;;;;43.34;12.56;99703.88;5013926;28;20037;-41
2023/06/15 08:04:58;;;;;;;6.38;5.25;;;;;;;43.56;12.28;99690.03;5030734;28;20037;-41
2023/06/15 08:07:24;;;;;;;4.45;3.80;;;;;;;43.75;12.33;99712.31;5019520;28;20033;-40
2023/06/15 08:09:50;;;;;;;5.22;3.58;;;;;;;43.83;11.88;99704.38;5024105;28;20049;-40
2023/06/15 08:12:17;;;;;;;5.25;4.15;;;;;;;43.92;11.71;99685.50;5030894;28;20052;-41
2023/06/15 08:14:43;;;;;;;11.45;3.63;;;;;;;44.16;11.75;99697.63;5030688;28;20160;-40
2023/06/15 08:17:09;;;;;;;4.95;4.30;;;;;;;44.27;11.67;99688.38;5030342;28;20136;-40
2023/06/15 08:19:35;;;;;;;6.32;4.50;;;;;;;44.64;11.55;99690.81;5029632;28;20041;-40
2023/06/15 08:22:01;;;;;;;5.43;3.83;;;;;;;44.83;11.59;99682.88;5030410;28;20504;-39
2023/06/15 08:24:29;;;;;;;5.70;3.80;;;;;;;44.91;11.39;99686.97;5028863;28;20041;-40
2023/06/15 08:26:54;;;;;;;6.15;4.38;;;;;;;45.08;11.23;99680.09;5030900;28;20443;-39
2023/06/15 08:29:21;;;;;;;7.18;4.13;;;;;;;45.34;11.52;99680.00;5030341;28;20099;-38
2023/06/15 08:31:47;;;;;;;6.50;4.20;;;;;;;45.26;10.94;99678.66;5044628;28;20406;-39
2023/06/15 08:34:13;;;;;;;6.10;3.70;;;;;;;45.30;11.05;99677.00;5030091;28;20041;-40
2023/06/15 08:36:39;;;;;;;7.45;3.78;;;;;;;45.47;10.67;99679.44;5030055;28;20045;-39
2023/06/15 08:39:05;;;;;;;7.30;4.17;;;;;;;45.51;11.02;99675.03;5029030;28;20034;-39
2023/06/15 08:41:31;;;;;;;8.40;6.40;;;;;;;45.78;10.70;99678.19;5030074;28;20076;-39
2023/06/15 08:43:57;;;;;;;6.00;5.40;;;;;;;46.08;10.44;99682.69;5012557;28;20449;-39
2023/06/15 08:46:24;;;;;;;7.40;4.90;;;;;;;46.01;10.52;99670.38;5030174;28;20124;-40
2023/06/15 08:48:51;;;;;;;7.15;5.18;;;;;;;45.65;10.71;99670.53;5028760;28;20102;-40
2023/06/15 08:51:17;;;;;;;9.77;4.60;;;;;;;45.99;10.47;99656.91;5011896;28;20052;-41
2023/06/15 08:53:45;;;;;;;6.28;5.00;;;;;;;46.29;10.37;99669.63;5028649;28;20045;-40
2023/06/15 08:56:11;;;;;;;5.82;3.80;;;;;;;46.22;10.29;99636.94;5045029;28;20087;-40
2023/06/15 08:58:38;;;;;;;7.57;4.43;;;;;;;46.23;10.00;99657.84;5029781;28;20429;-41
2023/06/15 09:01:05;;;;;;;;;;;;;;;46.38;10.29;99662.38;5028683;28;20041;-39
2023/06/15 09:03:33;;;;;;;8.88;4.30;;;;;;;46.34;10.16;99666.81;5044956;28;19921;-40
2023/06/15 09:05:59;;;;;;;8.48;4.40;;;;;;;46.38;9.70;99645.88;5028535;28;20053;-41
2023/06/15 09:08:26;;;;;;;7.28;4.55;;;;;;;46.24;10.01;99658.66;5026461;28;20116;-40
2023/06/15 09:11:05;;;;;;;8.90;6.60;;;;;;;46.39;9.58;99658.53;5008391;28;20501;-39
2023/06/15 09:13:33;;;;;;;7.70;6.88;;;;;;;46.59;10.05;99654.78;5008373;28;20092;-40
2023/06/15 09:16:00;;;;;;;10.73;9.73;;;;;;;46.84;9.55;99640.78;5009843;28;20045;-41
2023/06/15 09:18:26;;;;;;;16.58;12.68;;;;;;;47.15;10.15;99644.88;5008602;28;20050;-41
2023/06/15 09:20:58;;;;;;;6.47;4.30;;;;;;;47.14;10.06;99640.47;5009663;28;20061;-39
2023/06/15 09:23:24;;;;;;;7.35;6.38;;;;;;;47.28;9.81;99639.78;5009415;28;20037;-39
2023/06/15 09:25:54;;;;;;;11.10;5.53;;;;;;;47.26;9.47;99640.06;5008223;28;20049;-40
2023/06/15 09:28:27;;;;;;;8.10;4.90;;;;;;;47.26;9.24;99637.31;5009434;28;20371;-40
2023/06/15 09:30:59;;;;;;;7.57;4.72;;;;;;;47.44;9.79;99636.53;5008760;28;20502;-40
2023/06/15 09:33:26;;;;;;;6.03;5.30;;;;;;;47.38;9.54;99634.94;5007968;28;20041;-40
2023/06/15 09:35:59;;;;;;;8.48;5.13;;;;;;;46.90;9.69;99636.06;5009226;28;20120;-39
2023/06/15 09:38:26;;;;;;;4.88;4.25;;;;;;;46.19;9.81;99614.72;5009348;28;20579;-38
2023/06/15 09:40:53;;;;;;;6.18;5.68;;;;;;;46.76;10.22;99622.16;5009253;28;20046;-40
2023/06/15 09:43:20;;;;;;;6.55;4.82;;;;;;;47.21;9.45;99628.28;5008091;28;20096;-41
2023/06/15 09:45:53;;;;;;;10.98;5.30;;;;;;;47.32;9.22;99618.81;4991549;28;20051;-40
2023/06/15 09:48:19;;;;;;;5.57;5.05;;;;;;;47.28;9.22;99612.22;5007881;28;20041;-40
2023/06/15 09:50:52;;;;;;;6.70;5.93;;;;;;;47.31;9.52;99614.41;5007665;28;20072;-40
2023/06/15 09:53:18;;;;;;;7.80;5.20;;;;;;;47.63;9.50;99625.56;5009162;28;20041;-38
2023/06/15 09:55:48;;;;;;;9.73;4.97;;;;;;;47.76;9.19;99626.72;5008925;28;20522;-39
2023/06/15 09:58:14;;;;;;;6.05;4.95;;;;;;;47.71;9.28;99600.06;5008892;28;20136;-40
2023/06/15 10:00:40;;;;;;;8.33;5.20;;;;;;;48.26;9.10;99623.16;5008861;28;20039;-40
2023/06/15 10:03:08;;;;;;;5.70;4.87;;;;;;;48.47;8.73;99622.88;5007542;28;20041;-40
2023/06/15 10:05:40;;;;;;;5.43;4.57;;;;;;;48.21;8.94;99609.47;5023592;28;20119;-39
2023/06/15 10:08:07;;;;;;;5.82;5.30;;;;;;;48.35;8.94;99613.13;5025120;28;20047;-40
2023/06/15 10:10:36;;;;;;;6.22;5.18;;;;;;;48.49;8.77;99607.63;5025589;28;20097;-39
2023/06/15 10:13:03;;;;;;;5.25;4.85;;;;;;;48.46;8.90;99601.91;5043747;28;20045;-40
2023/06/15 10:15:29;;;;;;;;;;;;;;;48.61;8.78;99609.91;5027546;28;20041;-40
2023/06/15 10:17:56;;;;;;;7.65;4.70;;;;;;;48.42;8.86;99572.16;5028288;28;19917;-39
2023/06/15 10:20:23;;;;;;;7.20;5.72;;;;;;;48.69;8.54;99589.84;5043523;28;20037;-40
2023/06/15 10:22:57;;;;;;;6.13;4.75;;;;;;;48.88;8.71;99600.84;5027001;28;20576;-40
2023/06/15 10:25:24;;;;;;;6.15;5.65;;;;;;;48.94;8.91;99605.97;5026914;28;20045;-40
2023/06/15 10:27:50;;;;;;;9.50;5.60;;;;;;;48.76;8.97;99593.88;5026847;28;20091;-40
2023/06/15 10:30:25;;;;;;;6.10;5.53;;;;;;;48.59;8.82;99590.88;5043515;28;20464;-39
2023/06/15 10:32:56;;;;;;;5.55;5.05;;;;;;;48.42;9.05;99584.31;5028295;28;20421;-39
2023/06/15 10:35:25;;;;;;;5.43;4.90;;;;;;;48.55;9.14;99587.09;5028161;28;20041;-40
2023/06/15 10:37:53;;;;;;;5.47;5.07;;;;;;;48.80;9.01;99580.28;5028072;28;20124;-40
2023/06/15 10:40:30;;;;;;;6.43;5.10;;;;;;;48.77;8.77;99578.13;5021816;28;20053;-40
2023/06/15 10:42:56;;;;;;;;;;;;;;;48.86;9.09;99581.00;5026010;28;20124;-40
2023/06/15 10:45:31;;;;;;;6.30;5.70;;;;;;;49.10;8.96;99574.13;5012510;28;20395;-39
2023/06/15 10:47:59;;;;;;;6.45;5.60;;;;;;;49.13;8.98;99572.72;5012674;28;20130;-40
2023/06/15 10:50:26;;;;;;;7.82;5.57;;;;;;;49.28;8.58;99583.44;5017456;28;20483;-40
2023/06/15 10:52:52;;;;;;;5.68;5.25;;;;;;;49.03;8.62;99575.66;5032992;28;20169;-40
2023/06/15 10:55:23;;;;;;;9.05;7.95;;;;;;;48.48;8.79;99574.81;5014609;28;20046;-39
2023/06/15 10:58:18;;;;;;;6.43;5.43;;;;;;;48.61;8.78;99571.25;5014421;28;20068;-39
2023/06/15 11:00:45;;;;;;;6.32;5.82;;;;;;;48.38;9.13;99562.03;5030704;28;20436;-39
2023/06/15 11:03:25;;;;;;;5.93;5.53;;;;;;;48.75;8.73;99572.91;5014344;28;20037;-40
2023/06/15 11:06:21;;;;;;;9.48;6.35;;;;;;;49.09;9.00;99564.25;5030534;28;20048;-41
2023/06/15 11:09:00;;;;;;;7.55;6.85;;;;;;;49.23;8.74;99553.97;5017215;28;20049;-46
2023/06/15 11:11:36;;;;;;;6.30;5.70;;;;;;;49.29;9.08;99560.19;5031805;28;20517;-41
2023/06/15 11:14:22;;;;;;;7.05;5.50;;;;;;;49.36;8.85;99557.81;5031898;28;20045;-38
2023/06/15 11:17:05;;;;;;;6.13;5.63;;;;;;;49.33;8.62;99555.69;5031335;28;20087;-42
2023/06/15 11:19:31;;;;;;;8.77;7.45;;;;;;;49.00;8.91;99562.47;5030108;28;20084;-41
2023/06/15 11:22:00;;;;;;;8.95;6.78;;;;;;;49.21;8.95;99553.44;5030200;28;20040;-39
2023/06/15 11:24:29;;;;;;;7.40;6.78;;;;;;;49.41;8.89;99556.94;5046610;28;20045;-40
2023/06/15 11:26:55;;;;;;;6.70;5.70;;;;;;;49.44;9.03;99553.53;5014147;28;20053;-41
2023/06/15 11:29:25;;;;;;;6.80;6.15;;;;;;;49.18;8.84;99523.69;5031518;28;20482;-40
2023/06/15 11:31:55;;;;;;;8.38;6.28;;;;;;;49.02;8.63;99525.13;4981413;28;20046;-40
2023/06/15 11:34:21;;;;;;;5.95;5.45;;;;;;;49.07;8.99;99549.09;5031522;28;20521;-39